createdAt,value
2022-12-07T00:04:54.504Z,100625.69
2022-12-07T00:09:55.960Z,100618.16
2022-12-07T00:14:57.458Z,100610.59
2022-12-07T00:19:59.357Z,100611.47
2022-12-07T00:25:00.954Z,100610.63
2022-12-07T00:30:03.122Z,100613.16
2022-12-07T00:35:05.260Z,100617.41
2022-12-07T00:40:07.758Z,100624.09
2022-12-07T00:45:09.755Z,100620.72
2022-12-07T00:50:11.347Z,100621.59
2022-12-07T00:55:12.796Z,100616.56
2022-12-07T01:00:14.664Z,100610.66
2022-12-07T01:05:16.160Z,100609.00
2022-12-07T01:10:17.627Z,100603.94
2022-12-07T01:15:19.259Z,100613.19
2022-12-07T01:20:20.677Z,100612.31
2022-12-07T01:25:22.243Z,100613.16
2022-12-07T01:30:23.917Z,100617.38
2022-12-07T01:35:25.476Z,100615.69
2022-12-07T01:40:26.996Z,100609.00
2022-12-07T01:45:40.510Z,100613.19
2022-12-07T01:50:44.653Z,100612.38
2022-12-07T01:55:52.209Z,100614.06
2022-12-07T02:00:53.746Z,100607.31
2022-12-07T02:05:56.458Z,100611.56
2022-12-07T02:10:57.892Z,100610.72
2022-12-07T02:16:44.809Z,100598.09
2022-12-07T02:22:05.816Z,100583.84
2022-12-07T02:27:35.182Z,100587.22
2022-12-07T02:32:42.658Z,100600.63
2022-12-07T02:38:16.771Z,100604.81
2022-12-07T02:43:24.491Z,100607.31
2022-12-07T02:48:27.912Z,100601.41
2022-12-07T02:53:34.156Z,100592.13
2022-12-07T02:58:38.461Z,100593.81
2022-12-07T03:03:44.489Z,100598.81
2022-12-07T03:09:01.448Z,100593.78
2022-12-07T03:14:14.379Z,100595.47
2022-12-07T03:19:19.623Z,100595.47
2022-12-07T03:24:27.322Z,100586.22
2022-12-07T03:29:35.275Z,100571.13
2022-12-07T03:35:13.850Z,100563.56
2022-12-07T03:40:31.967Z,100561.06
2022-12-07T03:45:44.219Z,100541.78
2022-12-07T03:50:53.512Z,100551.91
2022-12-07T03:55:55.831Z,100559.50
2022-12-07T04:00:57.276Z,100563.72
2022-12-07T04:05:59.768Z,100571.28
2022-12-07T04:11:01.831Z,100570.44
2022-12-07T04:16:03.430Z,100571.28
2022-12-07T04:21:04.929Z,100568.78
2022-12-07T04:26:07.478Z,100564.53
2022-12-07T04:31:09.047Z,100564.56
2022-12-07T04:36:10.652Z,100558.69
2022-12-07T04:41:12.140Z,100551.94
2022-12-07T04:46:13.625Z,100560.34
2022-12-07T04:51:19.328Z,100552.78
2022-12-07T04:56:20.874Z,100566.25
2022-12-07T05:01:23.697Z,100566.25
2022-12-07T05:06:25.502Z,100559.53
2022-12-07T05:11:39.378Z,100560.34
2022-12-07T05:16:41.915Z,100559.53
2022-12-07T05:21:43.658Z,100559.53
2022-12-07T05:26:46.116Z,100556.16
2022-12-07T05:31:47.641Z,100551.97
2022-12-07T05:36:49.206Z,100550.28
2022-12-07T05:42:09.116Z,100562.03
2022-12-07T05:47:11.348Z,100562.00
2022-12-07T05:52:12.807Z,100554.44
2022-12-07T05:57:14.320Z,100560.34
2022-12-07T06:02:17.830Z,100557.81
2022-12-07T06:07:19.292Z,100553.63
2022-12-07T06:12:35.995Z,100565.38
2022-12-07T06:17:37.874Z,100561.16
2022-12-07T06:22:39.389Z,100565.38
2022-12-07T06:27:40.917Z,100562.00
2022-12-07T06:32:42.386Z,100569.53
2022-12-07T06:37:43.847Z,100573.78
2022-12-07T06:42:45.484Z,100574.63
2022-12-07T06:47:47.424Z,100569.53
2022-12-07T06:52:49.186Z,100570.38
2022-12-07T06:57:50.714Z,100569.53
2022-12-07T07:02:52.276Z,100567.88
2022-12-07T07:13:15.351Z,100567.03
2022-12-07T07:18:16.836Z,100576.25
2022-12-07T07:23:18.767Z,100571.22
2022-12-07T07:28:20.297Z,100575.44
2022-12-07T07:33:21.815Z,100575.44
2022-12-07T07:38:23.473Z,100569.50
2022-12-07T07:43:24.887Z,100577.88
2022-12-07T07:48:26.469Z,100583.78
2022-12-07T07:53:27.945Z,100587.09
2022-12-07T07:58:29.347Z,100592.97
2022-12-07T08:03:30.810Z,100588.78
2022-12-07T08:08:32.883Z,100597.91
2022-12-07T08:13:34.382Z,100587.75
2022-12-07T08:18:40.815Z,100599.56
2022-12-07T08:23:42.652Z,100603.72
2022-12-07T08:28:46.040Z,100607.09
2022-12-07T08:33:49.010Z,100601.25
2022-12-07T08:39:29.318Z,100601.22
2022-12-07T08:44:12.767Z,100618.03
2022-12-07T08:49:19.087Z,100614.63
2022-12-07T08:54:20.789Z,100615.41
2022-12-07T08:59:22.544Z,100621.25
2022-12-07T09:04:24.064Z,100617.88
2022-12-07T09:09:25.640Z,100611.19
2022-12-07T09:14:27.165Z,100617.97
2022-12-07T09:19:28.583Z,100625.56
2022-12-07T09:24:30.058Z,100626.34
2022-12-07T09:29:31.477Z,100618.78
2022-12-07T09:34:33.285Z,100623.81
2022-12-07T09:39:38.324Z,100607.69
2022-12-07T09:44:41.332Z,100619.50
2022-12-07T09:49:42.854Z,100616.19
2022-12-07T09:54:48.360Z,100617.03
2022-12-07T09:59:49.809Z,100598.44
2022-12-07T10:04:51.435Z,100602.66
2022-12-07T10:09:52.926Z,100598.44
2022-12-07T10:15:18.411Z,100593.38
2022-12-07T10:20:28.178Z,100586.56
2022-12-07T10:25:35.363Z,100590.72
2022-12-07T10:30:55.429Z,100584.03
2022-12-07T10:35:57.783Z,100584.91
2022-12-07T10:41:07.692Z,100580.69
2022-12-07T10:46:38.429Z,100572.25
2022-12-07T10:51:50.454Z,100576.38
2022-12-07T10:57:10.637Z,100569.66
2022-12-07T11:02:27.500Z,100564.59
2022-12-07T11:07:38.186Z,100551.19
2022-12-07T11:12:39.603Z,100543.66
2022-12-07T11:17:49.842Z,100532.63
2022-12-07T11:23:18.593Z,100523.25
2022-12-07T11:28:38.412Z,100523.28
2022-12-07T11:33:46.907Z,100520.72
2022-12-07T11:38:56.058Z,100522.34
2022-12-07T11:44:07.138Z,100514.59
2022-12-07T11:49:36.482Z,100508.63
2022-12-07T11:54:44.530Z,100504.25
2022-12-07T11:59:52.571Z,100506.81
2022-12-07T12:04:56.642Z,100493.28
2022-12-07T12:10:07.625Z,100494.22
2022-12-07T12:15:24.618Z,100500.31
2022-12-07T12:20:50.634Z,100491.13
2022-12-07T12:26:02.456Z,100477.66
2022-12-07T12:31:11.874Z,100483.53
2022-12-07T12:36:19.098Z,100476.84
2022-12-07T12:41:47.897Z,100476.88
2022-12-07T12:46:52.417Z,100471.00
2022-12-07T12:51:59.680Z,100475.31
2022-12-07T12:57:13.036Z,100469.34
2022-12-07T13:02:22.004Z,100464.22
2022-12-07T13:07:48.421Z,100456.63
2022-12-07T13:13:14.831Z,100454.88
2022-12-07T13:18:25.366Z,100454.06
2022-12-07T13:23:39.009Z,100447.25
2022-12-07T13:28:46.480Z,100443.00
2022-12-07T13:33:49.076Z,100439.66
2022-12-07T13:39:15.388Z,100432.16
2022-12-07T13:44:18.199Z,100437.16
2022-12-07T13:49:31.184Z,100432.09
2022-12-07T13:54:32.623Z,100428.78
2022-12-07T13:59:34.524Z,100433.09
2022-12-07T14:04:38.059Z,100432.38
2022-12-07T14:09:39.478Z,100431.53
2022-12-07T14:14:49.097Z,100422.28
2022-12-07T14:19:56.073Z,100423.19
2022-12-07T14:25:18.245Z,100425.66
2022-12-07T14:30:20.170Z,100433.25
2022-12-07T14:35:21.798Z,100436.59
2022-12-07T14:40:25.427Z,100431.56
2022-12-07T14:45:26.844Z,100424.03
2022-12-07T14:50:28.357Z,100434.19
2022-12-07T14:55:32.355Z,100434.25
2022-12-07T15:00:35.195Z,100435.91
2022-12-07T15:05:38.139Z,100438.41
2022-12-07T15:10:41.102Z,100429.97
2022-12-07T15:15:42.901Z,100428.19
2022-12-07T15:20:45.110Z,100423.97
2022-12-07T15:25:48.304Z,100424.94
2022-12-07T15:30:49.778Z,100417.53
2022-12-07T15:35:51.296Z,100417.66
2022-12-07T15:40:52.726Z,100415.19
2022-12-07T15:45:54.207Z,100420.25
2022-12-07T15:51:06.634Z,100411.81
2022-12-07T15:56:08.927Z,100412.59
2022-12-07T16:01:14.450Z,100410.97
2022-12-07T16:06:20.292Z,100402.56
2022-12-07T16:11:21.934Z,100395.00
2022-12-07T16:16:23.683Z,100394.19
2022-12-07T16:21:25.913Z,100385.03
2022-12-07T16:26:27.579Z,100382.56
2022-12-07T16:31:29.533Z,100380.06
2022-12-07T16:41:53.854Z,100380.06
2022-12-07T16:46:55.528Z,100382.50
2022-12-07T16:52:26.056Z,100380.81
2022-12-07T16:57:23.143Z,100373.22
2022-12-07T17:02:26.284Z,100371.53
2022-12-07T17:07:27.749Z,100366.56
2022-12-07T17:12:29.222Z,100364.91
2022-12-07T17:17:30.753Z,100364.97
2022-12-07T17:22:32.218Z,100355.75
2022-12-07T17:27:33.801Z,100346.56
2022-12-07T17:32:35.275Z,100338.31
2022-12-07T17:37:36.749Z,100329.97
2022-12-07T17:42:39.974Z,100333.38
2022-12-07T17:47:41.507Z,100330.00
2022-12-07T17:53:01.480Z,100321.63
2022-12-07T17:58:02.917Z,100317.47
2022-12-07T18:03:09.502Z,100319.16
2022-12-07T18:08:11.121Z,100315.00
2022-12-07T18:13:31.314Z,100315.84
2022-12-07T18:18:32.817Z,100310.81
2022-12-07T18:23:34.458Z,100307.47
2022-12-07T18:28:35.946Z,100304.94
2022-12-07T18:33:37.515Z,100309.19
2022-12-07T18:38:39.611Z,100305.06
2022-12-07T18:43:42.153Z,100308.47
2022-12-07T18:48:45.462Z,100310.25
2022-12-07T18:53:47.221Z,100304.41
2022-12-07T18:59:09.029Z,100301.91
2022-12-07T19:04:10.975Z,100301.94
2022-12-07T19:09:13.537Z,100301.97
2022-12-07T19:14:33.106Z,100298.63
2022-12-07T19:19:36.990Z,100309.50
2022-12-07T19:24:38.651Z,100310.31
2022-12-07T19:29:40.583Z,100302.75
2022-12-07T19:34:43.895Z,100304.38
2022-12-07T19:39:46.568Z,100297.72
2022-12-07T19:44:48.548Z,100299.44
2022-12-07T19:49:50.033Z,100295.28
2022-12-07T19:54:51.501Z,100298.66
2022-12-07T19:59:52.932Z,100289.47
2022-12-07T20:04:54.352Z,100292.88
2022-12-07T20:09:55.918Z,100290.34
2022-12-07T20:14:57.582Z,100290.34
2022-12-07T20:19:59.009Z,100286.16
2022-12-07T20:25:00.521Z,100284.50
2022-12-07T20:30:02.041Z,100282.00
2022-12-07T20:35:03.666Z,100285.34
2022-12-07T20:40:06.398Z,100281.16
2022-12-07T20:45:09.598Z,100268.59
2022-12-07T20:50:11.377Z,100263.56
2022-12-07T20:55:13.194Z,100264.41
2022-12-07T21:00:15.153Z,100251.81
2022-12-07T21:05:18.622Z,100250.97
2022-12-07T21:10:20.076Z,100245.91
2022-12-07T21:15:21.535Z,100240.88
2022-12-07T21:20:22.946Z,100243.38
2022-12-07T21:25:24.406Z,100245.00
2022-12-07T21:30:25.863Z,100245.81
2022-12-07T21:35:27.320Z,100255.84
2022-12-07T21:40:28.786Z,100267.47
2022-12-07T21:45:32.755Z,100256.59
2022-12-07T21:50:37.986Z,100255.72
2022-12-07T21:55:43.985Z,100261.56
2022-12-07T22:00:45.421Z,100249.81
2022-12-07T22:05:47.012Z,100245.59
2022-12-07T22:10:48.434Z,100248.09
2022-12-07T22:15:49.954Z,100248.16
2022-12-07T22:20:56.191Z,100240.75
2022-12-07T22:25:59.032Z,100246.66
2022-12-07T22:31:06.907Z,100232.47
2022-12-07T22:36:09.501Z,100231.69
2022-12-07T22:41:12.326Z,100230.06
2022-12-07T22:46:13.871Z,100228.38
2022-12-07T22:51:24.692Z,100225.84
2022-12-07T22:56:26.915Z,100223.34
2022-12-07T23:01:28.383Z,100221.69
2022-12-07T23:06:32.232Z,100222.50
2022-12-07T23:11:55.787Z,100219.97
2022-12-07T23:16:57.611Z,100201.53
2022-12-07T23:21:59.124Z,100202.34
2022-12-07T23:27:00.652Z,100186.44
2022-12-07T23:32:02.214Z,100181.44
2022-12-07T23:37:03.672Z,100193.97
2022-12-07T23:42:05.166Z,100177.25
2022-12-07T23:47:06.692Z,100168.06
2022-12-07T23:52:08.258Z,100167.22
2022-12-07T23:57:09.912Z,100169.78
